Time;durP1;ratioP1;P1;durP2;ratioP2;P2;SDS_P1;SDS_P2;PMS_P1;PMS_P2;Temp;Humidity;BMP_temperature;BMP_pressure;BME280_temperature;BME280_humidity;BME280_pressure;Samples;Min_cycle;Max_cycle;Signal;HPM_P1;HPM_P2
2021/09/24 00:02:07;;;;;;;5.18;3.90;;;13.70;99.90;;;;;;5091964;28;20443;-65
2021/09/24 00:04:35;;;;;;;3.97;3.65;;;13.70;99.90;;;;;;5091886;28;20110;-65
2021/09/24 00:07:01;;;;;;;6.25;3.92;;;13.60;99.90;;;;;;5091832;28;20111;-65
2021/09/24 00:09:27;;;;;;;4.80;4.00;;;13.60;99.90;;;;;;5091374;28;20032;-65
2021/09/24 00:11:53;;;;;;;5.50;3.95;;;13.60;99.90;;;;;;5092032;28;20039;-65
2021/09/24 00:14:18;;;;;;;5.72;4.35;;;13.50;99.90;;;;;;5091428;28;20040;-65
2021/09/24 00:16:44;;;;;;;4.80;4.10;;;13.50;99.90;;;;;;5091903;28;20024;-65
2021/09/24 00:19:10;;;;;;;3.85;3.40;;;13.40;99.90;;;;;;5092257;28;20020;-64
2021/09/24 00:21:35;;;;;;;6.20;3.97;;;13.40;99.90;;;;;;5091818;28;20388;-65
2021/09/24 00:24:01;;;;;;;5.00;4.07;;;13.40;99.90;;;;;;5091790;28;20032;-65
2021/09/24 00:26:28;;;;;;;5.32;4.80;;;13.40;99.90;;;;;;5090698;28;20416;-65
2021/09/24 00:28:54;;;;;;;5.82;4.18;;;13.40;99.90;;;;;;5091504;28;20020;-65
2021/09/24 00:31:19;;;;;;;5.28;3.92;;;13.40;99.90;;;;;;5090242;28;20024;-65
2021/09/24 00:33:45;;;;;;;9.02;4.82;;;13.50;99.90;;;;;;5091421;28;20102;-65
2021/09/24 00:36:11;;;;;;;5.50;4.20;;;13.50;99.90;;;;;;5091126;28;20034;-65
2021/09/24 00:38:38;;;;;;;5.15;4.63;;;13.60;99.90;;;;;;5091001;28;20028;-65
2021/09/24 00:41:05;;;;;;;4.50;3.85;;;13.60;99.90;;;;;;5091727;28;20066;-65
2021/09/24 00:43:31;;;;;;;4.70;4.18;;;13.60;99.90;;;;;;5090124;28;20665;-64
2021/09/24 00:45:56;;;;;;;5.55;3.90;;;13.50;99.90;;;;;;5091061;28;20040;-65
2021/09/24 00:48:22;;;;;;;4.80;4.25;;;13.50;99.90;;;;;;5090659;28;20032;-65
2021/09/24 00:50:48;;;;;;;5.57;4.30;;;13.50;99.90;;;;;;5091749;28;20032;-65
2021/09/24 00:53:13;;;;;;;5.78;4.13;;;13.40;99.90;;;;;;5091295;28;20031;-65
2021/09/24 00:55:39;;;;;;;7.13;4.22;;;13.40;99.90;;;;;;5091291;28;20039;-65
2021/09/24 00:58:05;;;;;;;6.57;4.53;;;13.40;99.90;;;;;;5091484;28;20062;-66
2021/09/24 01:00:31;;;;;;;5.93;4.20;;;13.40;99.90;;;;;;5090818;28;20027;-65
2021/09/24 01:02:57;;;;;;;5.57;4.45;;;13.30;99.90;;;;;;5091634;28;20106;-66
2021/09/24 01:05:22;;;;;;;4.35;3.90;;;13.30;99.90;;;;;;5090765;28;20480;-65
2021/09/24 01:07:48;;;;;;;7.82;4.18;;;13.30;99.90;;;;;;5090726;28;20086;-66
2021/09/24 01:10:16;;;;;;;6.72;4.88;;;13.30;99.90;;;;;;5090690;28;20073;-65
2021/09/24 01:12:43;;;;;;;7.97;4.90;;;13.20;99.90;;;;;;5090975;28;20488;-65
2021/09/24 01:15:11;;;;;;;4.90;3.92;;;13.20;99.90;;;;;;5091600;28;20081;-65
2021/09/24 01:17:38;;;;;;;4.57;4.18;;;13.20;99.90;;;;;;5090062;28;20020;-65
2021/09/24 01:20:06;;;;;;;5.47;4.40;;;13.10;99.90;;;;;;5091315;28;20028;-65
2021/09/24 01:22:32;;;;;;;6.28;4.65;;;13.00;99.90;;;;;;5072812;28;20823;-67
2021/09/24 01:24:58;;;;;;;7.57;4.22;;;13.00;99.90;;;;;;5091159;28;20122;-67
2021/09/24 01:27:24;;;;;;;5.28;4.68;;;12.90;99.90;;;;;;5090280;28;20099;-67
2021/09/24 01:29:51;;;;;;;5.32;4.45;;;12.80;99.90;;;;;;5090818;28;20031;-65
2021/09/24 01:32:17;;;;;;;5.50;4.82;;;12.80;99.90;;;;;;5089994;28;20035;-65
2021/09/24 01:34:43;;;;;;;5.80;4.70;;;12.70;99.90;;;;;;5091287;28;20027;-65
2021/09/24 01:37:09;;;;;;;6.00;4.60;;;12.70;99.90;;;;;;5090934;28;20377;-67
2021/09/24 01:39:35;;;;;;;6.75;4.70;;;12.70;99.90;;;;;;5090135;28;20019;-65
2021/09/24 01:42:01;;;;;;;5.82;4.80;;;12.70;99.90;;;;;;5090355;28;20116;-65
2021/09/24 01:44:27;;;;;;;5.15;4.30;;;12.60;99.90;;;;;;5090053;28;20039;-65
2021/09/24 01:46:53;;;;;;;5.68;4.82;;;12.60;99.90;;;;;;5090940;28;20024;-65
2021/09/24 01:49:19;;;;;;;5.40;4.68;;;12.60;99.90;;;;;;5090027;28;20035;-65
2021/09/24 01:51:46;;;;;;;6.45;4.80;;;12.60;99.90;;;;;;5090783;28;20097;-65
2021/09/24 01:54:15;;;;;;;5.95;5.15;;;12.50;99.90;;;;;;5090835;28;20388;-65
2021/09/24 01:56:41;;;;;;;6.85;5.53;;;12.50;99.90;;;;;;5090914;28;20024;-66
2021/09/24 01:59:07;;;;;;;7.63;5.53;;;12.50;99.90;;;;;;5090884;28;20036;-67
2021/09/24 02:01:34;;;;;;;7.22;5.85;;;12.50;99.90;;;;;;5071744;28;20024;-65
2021/09/24 02:04:00;;;;;;;6.75;5.22;;;12.50;99.90;;;;;;5090804;28;20459;-65
2021/09/24 02:06:25;;;;;;;5.60;5.07;;;12.50;99.90;;;;;;5092943;28;20032;-65
2021/09/24 02:08:51;;;;;;;7.10;5.55;;;12.50;99.90;;;;;;5094588;28;20546;-65
2021/09/24 02:11:17;;;;;;;6.70;5.18;;;12.50;99.90;;;;;;5093575;28;20038;-65
2021/09/24 02:13:43;;;;;;;8.00;4.95;;;12.50;99.90;;;;;;5094609;28;20099;-65
2021/09/24 02:16:10;;;;;;;6.22;4.38;;;12.50;99.90;;;;;;5094647;28;20032;-65
2021/09/24 02:18:36;;;;;;;5.55;4.50;;;12.50;99.90;;;;;;5075129;28;20209;-65
2021/09/24 02:21:02;;;;;;;7.18;5.25;;;12.50;99.90;;;;;;5094564;28;20016;-65
2021/09/24 02:23:28;;;;;;;6.15;4.80;;;12.50;99.90;;;;;;5093696;28;20024;-65
2021/09/24 02:25:53;;;;;;;6.57;5.07;;;12.50;99.90;;;;;;5094732;28;20456;-65
2021/09/24 02:28:19;;;;;;;7.30;5.35;;;12.50;99.90;;;;;;5075732;28;20032;-65
2021/09/24 02:30:45;;;;;;;5.55;4.78;;;12.60;99.90;;;;;;5094647;28;20016;-65
2021/09/24 02:33:11;;;;;;;8.15;4.70;;;12.70;99.90;;;;;;5094095;28;20036;-65
2021/09/24 02:35:37;;;;;;;5.78;4.82;;;12.70;99.90;;;;;;5093447;28;20031;-65
2021/09/24 02:38:03;;;;;;;6.35;4.85;;;12.70;99.90;;;;;;5094229;28;20489;-65
2021/09/24 02:40:29;;;;;;;6.60;5.47;;;12.70;99.90;;;;;;5093077;28;20106;-65
2021/09/24 02:42:55;;;;;;;5.45;4.95;;;12.70;99.90;;;;;;5094436;28;20151;-65
2021/09/24 02:45:20;;;;;;;6.68;4.97;;;12.70;99.90;;;;;;5092953;28;20036;-65
2021/09/24 02:47:46;;;;;;;7.25;5.28;;;12.60;99.90;;;;;;5093548;28;20039;-65
2021/09/24 02:50:12;;;;;;;5.50;5.00;;;12.60;99.90;;;;;;5090470;28;20031;-66
2021/09/24 02:52:38;;;;;;;6.50;5.05;;;12.60;99.90;;;;;;5092998;28;20202;-65
2021/09/24 02:55:05;;;;;;;8.25;5.32;;;12.60;99.90;;;;;;5094263;28;20373;-65
2021/09/24 02:57:30;;;;;;;7.40;5.28;;;12.60;99.90;;;;;;5093034;28;20060;-65
2021/09/24 02:59:56;;;;;;;8.73;4.68;;;12.50;99.90;;;;;;5093602;28;20067;-67
2021/09/24 03:02:22;;;;;;;7.93;5.80;;;12.50;99.90;;;;;;5093053;28;20465;-67
2021/09/24 03:04:47;;;;;;;6.78;5.18;;;12.50;99.90;;;;;;5098889;28;20052;-66
2021/09/24 03:07:13;;;;;;;8.32;5.55;;;12.40;99.90;;;;;;5093666;28;20024;-64
2021/09/24 03:09:39;;;;;;;5.93;5.28;;;12.30;99.90;;;;;;5091986;28;20151;-67
2021/09/24 03:12:05;;;;;;;6.90;5.63;;;12.30;99.90;;;;;;5093707;28;20035;-67
2021/09/24 03:14:31;;;;;;;9.40;4.90;;;12.30;99.90;;;;;;5092737;28;20040;-67
2021/09/24 03:16:57;;;;;;;7.80;5.35;;;12.30;99.90;;;;;;5092216;28;20529;-67
2021/09/24 03:19:22;;;;;;;7.13;5.25;;;12.20;99.90;;;;;;5092451;28;20112;-67
2021/09/24 03:21:49;;;;;;;7.90;5.75;;;12.20;99.90;;;;;;5074995;28;20446;-67
2021/09/24 03:24:16;;;;;;;6.25;5.25;;;12.20;99.90;;;;;;5093652;28;20064;-67
2021/09/24 03:26:42;;;;;;;6.90;5.50;;;12.20;99.90;;;;;;5092718;28;20032;-65
2021/09/24 03:29:08;;;;;;;7.22;5.10;;;12.10;99.90;;;;;;5093697;28;20488;-64
2021/09/24 03:31:40;;;;;;;6.70;5.28;;;12.20;99.90;;;;;;5092223;28;20020;-67
2021/09/24 03:34:07;;;;;;;6.88;5.43;;;12.20;99.90;;;;;;5085299;28;20081;-67
2021/09/24 03:36:33;;;;;;;6.65;5.43;;;12.20;99.90;;;;;;5092776;28;20023;-67
2021/09/24 03:38:59;;;;;;;5.88;5.32;;;12.30;99.90;;;;;;5092955;28;20068;-65
2021/09/24 03:41:24;;;;;;;9.18;5.57;;;12.30;99.90;;;;;;5091525;28;20115;-65
2021/09/24 03:43:50;;;;;;;8.30;5.72;;;12.40;99.90;;;;;;5074612;28;20073;-65
2021/09/24 03:46:16;;;;;;;7.78;5.57;;;12.60;99.90;;;;;;5092296;28;20031;-66
2021/09/24 03:48:42;;;;;;;6.93;5.00;;;12.60;99.90;;;;;;5092147;28;20103;-66
2021/09/24 03:51:08;;;;;;;8.27;5.55;;;12.60;99.90;;;;;;5092705;28;20103;-66
2021/09/24 03:53:34;;;;;;;6.07;5.18;;;12.60;99.90;;;;;;5091850;28;20108;-66
2021/09/24 03:55:59;;;;;;;8.48;5.22;;;12.60;99.90;;;;;;5092272;28;20102;-66
2021/09/24 03:58:25;;;;;;;11.35;5.85;;;12.50;99.90;;;;;;5092152;28;20030;-66
2021/09/24 04:00:51;;;;;;;9.15;6.10;;;12.50;99.90;;;;;;5097969;28;20043;-66
2021/09/24 04:03:17;;;;;;;7.68;5.20;;;12.40;99.90;;;;;;5092537;28;20032;-65
2021/09/24 04:05:44;;;;;;;7.63;5.43;;;12.40;99.90;;;;;;5092146;28;20036;-66
2021/09/24 04:08:10;;;;;;;6.43;5.40;;;12.30;99.90;;;;;;5092472;28;20116;-66
2021/09/24 04:10:36;;;;;;;12.15;5.95;;;12.20;99.90;;;;;;5090928;28;20425;-66
2021/09/24 04:13:02;;;;;;;7.53;5.88;;;12.10;99.90;;;;;;5073930;28;20553;-66
2021/09/24 04:15:28;;;;;;;7.72;5.53;;;12.00;99.90;;;;;;5091842;28;20040;-67
2021/09/24 04:17:53;;;;;;;7.60;6.00;;;12.00;99.90;;;;;;5092390;28;20144;-66
2021/09/24 04:20:19;;;;;;;6.57;5.20;;;11.90;99.90;;;;;;5091780;28;20031;-66
2021/09/24 04:22:45;;;;;;;8.77;5.18;;;11.90;99.90;;;;;;5091851;28;20028;-66
2021/09/24 04:25:11;;;;;;;8.73;5.25;;;11.90;99.90;;;;;;5092160;28;20040;-66
2021/09/24 04:27:37;;;;;;;9.80;5.90;;;11.90;99.90;;;;;;5090897;28;20393;-66
2021/09/24 04:30:04;;;;;;;8.68;5.97;;;11.90;99.90;;;;;;5092227;28;20024;-66
2021/09/24 04:32:30;;;;;;;8.55;6.10;;;11.90;99.90;;;;;;5091322;28;20024;-66
2021/09/24 04:34:56;;;;;;;7.15;6.35;;;11.90;99.90;;;;;;5091777;28;20120;-65
2021/09/24 04:37:22;;;;;;;13.30;6.45;;;11.80;99.90;;;;;;5091198;28;20062;-66
2021/09/24 04:39:48;;;;;;;10.15;5.85;;;11.70;99.90;;;;;;5100572;28;20040;-66
2021/09/24 04:42:14;;;;;;;6.50;5.80;;;11.70;99.90;;;;;;5091200;28;20056;-66
2021/09/24 04:44:40;;;;;;;9.85;6.13;;;11.70;99.90;;;;;;5090867;28;20615;-66
2021/09/24 04:47:06;;;;;;;11.60;6.57;;;11.60;99.90;;;;;;5091419;28;20079;-66
2021/09/24 04:49:32;;;;;;;9.65;6.65;;;11.60;99.90;;;;;;5090863;28;20499;-66
2021/09/24 04:51:58;;;;;;;8.57;6.32;;;11.60;99.90;;;;;;5091036;28;20032;-66
2021/09/24 04:54:24;;;;;;;7.45;6.05;;;11.60;99.90;;;;;;5091065;28;20489;-66
2021/09/24 04:56:49;;;;;;;9.52;6.55;;;11.60;99.90;;;;;;5091636;28;20025;-66
2021/09/24 04:59:15;;;;;;;8.77;5.85;;;11.70;99.90;;;;;;5091543;28;20056;-66
2021/09/24 05:01:40;;;;;;;7.40;6.13;;;11.70;99.90;;;;;;5090628;28;20020;-66
2021/09/24 05:04:06;;;;;;;9.07;6.75;;;11.80;99.90;;;;;;5090921;28;20114;-66
2021/09/24 05:06:32;;;;;;;9.98;6.60;;;11.70;99.90;;;;;;5090534;28;20059;-66
2021/09/24 05:08:57;;;;;;;9.23;6.30;;;11.70;99.90;;;;;;5092052;28;20092;-66
2021/09/24 05:11:23;;;;;;;9.20;5.90;;;11.80;99.90;;;;;;5090115;28;20028;-66
2021/09/24 05:13:49;;;;;;;8.02;6.40;;;11.70;99.90;;;;;;5091574;28;20040;-66
2021/09/24 05:16:18;;;;;;;7.30;6.07;;;11.70;99.90;;;;;;5091547;28;20039;-66
2021/09/24 05:18:44;;;;;;;6.85;6.15;;;11.60;99.90;;;;;;5089676;28;20028;-67
2021/09/24 05:21:10;;;;;;;8.48;6.22;;;11.60;99.90;;;;;;5089759;28;20099;-67
2021/09/24 05:23:36;;;;;;;8.15;6.60;;;11.50;99.90;;;;;;5089287;28;20427;-67
2021/09/24 05:26:02;;;;;;;7.80;6.70;;;11.50;99.90;;;;;;5090446;28;20031;-68
2021/09/24 05:28:27;;;;;;;7.72;6.65;;;11.50;99.90;;;;;;5089258;28;20032;-66
2021/09/24 05:30:53;;;;;;;10.77;6.80;;;11.40;99.90;;;;;;5090447;28;20032;-64
2021/09/24 05:33:19;;;;;;;8.90;6.70;;;11.40;99.90;;;;;;5091074;28;20063;-63
2021/09/24 05:35:45;;;;;;;11.45;7.05;;;11.40;99.90;;;;;;5090073;28;20055;-64
2021/09/24 05:38:10;;;;;;;7.93;6.82;;;11.40;99.90;;;;;;5091031;28;20062;-63
2021/09/24 05:40:36;;;;;;;11.23;6.95;;;11.30;99.90;;;;;;5091854;28;21863;-64
2021/09/24 05:43:02;;;;;;;7.82;6.53;;;11.30;99.90;;;;;;5094735;28;20449;-65
2021/09/24 05:45:27;;;;;;;8.00;6.55;;;11.30;99.90;;;;;;5094169;28;20040;-65
2021/09/24 05:47:53;;;;;;;9.77;6.50;;;11.30;99.90;;;;;;5094364;28;20100;-65
2021/09/24 05:50:19;;;;;;;8.07;6.50;;;11.30;99.90;;;;;;5094967;28;20020;-66
2021/09/24 05:52:49;;;;;;;13.48;7.13;;;11.40;99.90;;;;;;5093992;28;20024;-66
2021/09/24 05:55:16;;;;;;;9.60;6.95;;;11.40;99.90;;;;;;5094384;28;20119;-65
2021/09/24 05:57:43;;;;;;;7.55;6.50;;;11.50;99.90;;;;;;5093334;28;20020;-66
2021/09/24 06:00:11;;;;;;;8.65;6.85;;;11.50;99.90;;;;;;5093519;28;20395;-68
2021/09/24 06:02:37;;;;;;;8.98;6.70;;;11.60;99.90;;;;;;5093928;28;20027;-66
2021/09/24 06:05:03;;;;;;;7.85;6.95;;;11.70;99.90;;;;;;5094663;28;20036;-65
2021/09/24 06:07:29;;;;;;;9.25;6.88;;;11.80;99.90;;;;;;5086053;28;20036;-65
2021/09/24 06:09:55;;;;;;;10.15;6.65;;;11.90;99.90;;;;;;5088390;28;20032;-65
2021/09/24 06:12:21;;;;;;;7.45;6.55;;;12.00;99.90;;;;;;5094273;28;20161;-66
2021/09/24 06:14:47;;;;;;;8.40;6.68;;;12.10;99.90;;;;;;5068315;28;21074;-65
2021/09/24 06:17:13;;;;;;;9.90;6.10;;;12.20;99.90;;;;;;5064754;28;20385;-65
2021/09/24 06:19:39;;;;;;;9.95;6.88;;;12.30;99.90;;;;;;5093247;28;20039;-65
2021/09/24 06:22:08;;;;;;;7.65;6.53;;;12.50;99.90;;;;;;5093866;28;20028;-65
2021/09/24 06:24:34;;;;;;;10.02;6.35;;;12.60;99.90;;;;;;5091812;28;20060;-65
2021/09/24 06:27:00;;;;;;;10.48;6.18;;;12.70;99.90;;;;;;5093545;28;20060;-65
2021/09/24 06:29:26;;;;;;;10.60;6.10;;;12.80;99.90;;;;;;5075265;28;20020;-65
2021/09/24 06:31:51;;;;;;;8.38;5.78;;;13.00;99.90;;;;;;5093853;28;20028;-66
2021/09/24 06:34:17;;;;;;;7.63;6.15;;;13.10;99.90;;;;;;5085592;28;20088;-66
2021/09/24 06:36:43;;;;;;;11.85;5.93;;;13.20;99.90;;;;;;5093893;28;20603;-66
2021/09/24 06:39:09;;;;;;;6.88;5.50;;;13.40;99.90;;;;;;5093980;28;20520;-66
2021/09/24 06:41:34;;;;;;;7.63;5.90;;;13.50;99.90;;;;;;5093064;28;20063;-65
2021/09/24 06:44:00;;;;;;;6.57;5.47;;;13.60;99.90;;;;;;5093483;28;20051;-65
2021/09/24 06:46:26;;;;;;;6.55;5.22;;;13.70;99.90;;;;;;5090394;28;20031;-65
2021/09/24 06:48:51;;;;;;;6.93;5.72;;;13.80;99.90;;;;;;5093574;28;20024;-65
2021/09/24 06:51:17;;;;;;;9.05;5.40;;;13.90;99.90;;;;;;5093122;28;20028;-65
2021/09/24 06:53:43;;;;;;;7.97;5.75;;;14.00;99.90;;;;;;5092344;28;20028;-65
2021/09/24 06:56:08;;;;;;;7.70;5.35;;;14.00;99.90;;;;;;5093649;28;20103;-65
2021/09/24 06:58:35;;;;;;;7.82;5.95;;;14.20;99.90;;;;;;5091905;28;20028;-65
2021/09/24 07:01:01;;;;;;;7.47;6.15;;;14.30;99.90;;;;;;5093295;28;20032;-65
2021/09/24 07:03:27;;;;;;;6.13;5.20;;;14.40;99.90;;;;;;5092866;28;20017;-65
2021/09/24 07:05:52;;;;;;;6.60;5.00;;;14.50;99.90;;;;;;5093378;28;20047;-65
2021/09/24 07:08:18;;;;;;;6.57;5.30;;;14.60;99.90;;;;;;5093018;28;20427;-65
2021/09/24 07:10:44;;;;;;;10.15;6.45;;;14.70;99.90;;;;;;5092362;28;20643;-65
2021/09/24 07:13:09;;;;;;;8.40;5.38;;;14.80;99.90;;;;;;5092739;28;20032;-65
2021/09/24 07:15:36;;;;;;;6.50;5.57;;;15.00;99.90;;;;;;5074364;28;20071;-65
2021/09/24 07:18:02;;;;;;;8.48;5.40;;;15.00;99.90;;;;;;5092738;28;20055;-65
2021/09/24 07:20:28;;;;;;;8.15;5.47;;;15.20;99.90;;;;;;5092640;28;20101;-65
2021/09/24 07:22:54;;;;;;;8.60;5.25;;;15.20;99.90;;;;;;5093643;28;20020;-66
2021/09/24 07:25:20;;;;;;;9.48;5.45;;;15.40;99.90;;;;;;5093195;28;20400;-64
2021/09/24 07:27:46;;;;;;;6.35;5.43;;;15.40;99.90;;;;;;5092870;28;20020;-64
2021/09/24 07:30:12;;;;;;;6.32;5.00;;;15.50;99.90;;;;;;5092903;28;20484;-65
2021/09/24 07:32:38;;;;;;;7.32;5.93;;;15.60;99.90;;;;;;5072763;28;20170;-65
2021/09/24 07:35:04;;;;;;;5.75;5.00;;;15.70;99.90;;;;;;5077613;28;20032;-65
2021/09/24 07:37:30;;;;;;;6.97;5.40;;;15.80;99.90;;;;;;5092459;28;20032;-64
2021/09/24 07:39:56;;;;;;;9.65;5.40;;;15.80;99.90;;;;;;5093345;28;20028;-65
2021/09/24 07:42:21;;;;;;;5.95;4.75;;;15.90;99.90;;;;;;5092166;28;20076;-66
2021/09/24 07:44:47;;;;;;;6.82;5.45;;;16.00;99.90;;;;;;5092274;28;20047;-65
2021/09/24 07:47:13;;;;;;;6.95;4.82;;;16.10;99.90;;;;;;5093124;28;20098;-65
2021/09/24 07:49:40;;;;;;;9.02;5.35;;;16.30;99.90;;;;;;5092249;28;20032;-65
2021/09/24 07:52:06;;;;;;;6.50;5.07;;;16.50;99.90;;;;;;5092784;28;20358;-66
2021/09/24 07:54:32;;;;;;;5.68;4.65;;;16.60;99.90;;;;;;5091563;28;20042;-66
2021/09/24 07:56:57;;;;;;;6.40;4.95;;;16.70;99.90;;;;;;5092740;28;20366;-65
2021/09/24 07:59:23;;;;;;;6.53;4.70;;;16.80;99.90;;;;;;5092886;28;20097;-65
2021/09/24 08:01:49;;;;;;;7.15;5.35;;;16.90;99.90;;;;;;5091476;28;20482;-65
2021/09/24 08:04:15;;;;;;;7.38;5.72;;;17.00;99.90;;;;;;5092291;28;20473;-66
2021/09/24 08:06:40;;;;;;;6.10;4.72;;;17.10;99.90;;;;;;5091623;28;20462;-66
2021/09/24 08:09:06;;;;;;;5.82;4.68;;;17.20;99.90;;;;;;5092281;28;20028;-66
2021/09/24 08:11:32;;;;;;;6.80;5.00;;;17.30;99.90;;;;;;5091337;28;20028;-65
2021/09/24 08:13:57;;;;;;;5.30;4.80;;;17.40;99.90;;;;;;5074383;28;20401;-65
2021/09/24 08:16:23;;;;;;;8.70;4.80;;;17.60;99.90;;;;;;5091696;28;20103;-65
2021/09/24 08:18:49;;;;;;;6.55;5.10;;;17.60;99.90;;;;;;5092092;28;20063;-66
2021/09/24 08:21:15;;;;;;;6.78;4.60;;;17.60;99.90;;;;;;5092038;28;20032;-66
2021/09/24 08:23:42;;;;;;;5.97;5.03;;;17.70;99.90;;;;;;5091710;28;20024;-66
2021/09/24 08:26:09;;;;;;;6.35;4.65;;;17.80;99.90;;;;;;5084459;28;20040;-65
2021/09/24 08:28:35;;;;;;;6.82;4.57;;;17.80;99.90;;;;;;5071524;28;20108;-66
2021/09/24 08:31:01;;;;;;;5.38;4.55;;;17.80;99.90;;;;;;5079949;28;20514;-66
2021/09/24 08:33:27;;;;;;;7.03;5.45;;;17.90;99.90;;;;;;5091946;28;20024;-65
2021/09/24 08:35:54;;;;;;;6.47;5.13;;;17.90;99.90;;;;;;5091333;28;20028;-66
2021/09/24 08:38:19;;;;;;;6.95;4.60;;;18.00;99.90;;;;;;5092169;28;20060;-66
2021/09/24 08:40:45;;;;;;;6.30;4.78;;;18.10;99.90;;;;;;5090728;28;20787;-65
2021/09/24 08:43:13;;;;;;;6.47;4.93;;;18.20;99.70;;;;;;5074436;28;20025;-66
2021/09/24 08:45:41;;;;;;;7.18;5.18;;;18.20;99.40;;;;;;5090699;28;20138;-66
2021/09/24 08:48:10;;;;;;;7.40;4.82;;;18.30;99.20;;;;;;5091933;28;20027;-66
2021/09/24 08:50:37;;;;;;;6.95;5.32;;;18.40;99.10;;;;;;5090901;28;20527;-65
2021/09/24 08:53:05;;;;;;;5.55;4.28;;;18.40;99.00;;;;;;5092126;28;20028;-66
2021/09/24 08:55:32;;;;;;;7.10;4.72;;;18.60;98.80;;;;;;5090809;28;20492;-66
2021/09/24 08:58:00;;;;;;;5.05;4.15;;;18.70;98.60;;;;;;5092193;28;20044;-66
2021/09/24 09:00:27;;;;;;;4.97;3.97;;;18.90;98.00;;;;;;5091533;28;20039;-66
2021/09/24 09:02:58;;;;;;;7.75;4.80;;;19.00;97.50;;;;;;5091251;28;20097;-66
2021/09/24 09:05:27;;;;;;;9.80;5.53;;;19.20;96.80;;;;;;5091063;28;20127;-66
2021/09/24 09:08:17;;;;;;;7.68;4.43;;;19.60;96.00;;;;;;5091399;28;20032;-66
2021/09/24 09:10:52;;;;;;;7.75;4.20;;;19.90;95.10;;;;;;5068507;28;20032;-66
2021/09/24 09:13:19;;;;;;;9.98;3.88;;;20.10;94.90;;;;;;5090787;28;20074;-66
2021/09/24 09:15:54;;;;;;;5.22;3.80;;;20.30;94.30;;;;;;5089342;28;20036;-66
2021/09/24 09:18:20;;;;;;;7.05;3.88;;;20.60;93.10;;;;;;5091350;28;20093;-66
2021/09/24 09:20:48;;;;;;;7.30;3.78;;;20.50;92.70;;;;;;5089803;28;20028;-66
2021/09/24 09:23:14;;;;;;;6.60;4.05;;;20.40;92.80;;;;;;5091831;28;20028;-66
2021/09/24 09:25:43;;;;;;;12.05;4.28;;;20.20;92.50;;;;;;5089984;28;20036;-66
2021/09/24 09:28:26;;;;;;;5.50;3.92;;;20.00;93.10;;;;;;5090968;28;20354;-67
2021/09/24 09:30:52;;;;;;;35.92;4.80;;;19.80;93.10;;;;;;5089631;28;20055;-66
2021/09/24 09:33:19;;;;;;;7.65;3.25;;;19.60;93.90;;;;;;5092589;28;20485;-66
2021/09/24 09:35:51;;;;;;;7.28;3.00;;;19.50;93.90;;;;;;5092232;28;20047;-65
2021/09/24 09:38:29;;;;;;;7.88;4.65;;;19.30;93.80;;;;;;5090978;28;20035;-65
2021/09/24 09:41:05;;;;;;;5.38;4.32;;;19.20;94.50;;;;;;5090610;28;20052;-66
2021/09/24 09:43:47;;;;;;;7.80;3.78;;;19.20;94.80;;;;;;5090682;28;20067;-66
2021/09/24 09:46:19;;;;;;;9.32;3.90;;;19.20;95.20;;;;;;5084148;28;20111;-66
2021/09/24 09:49:01;;;;;;;17.55;5.15;;;19.30;95.50;;;;;;5083154;28;20165;-66
2021/09/24 09:51:28;;;;;;;7.80;4.70;;;19.50;95.10;;;;;;5090675;28;20021;-67
2021/09/24 09:53:53;;;;;;;10.52;4.75;;;19.60;95.00;;;;;;5090922;28;20500;-66
2021/09/24 09:56:20;;;;;;;39.95;6.35;;;19.70;94.20;;;;;;5091209;28;20029;-66
2021/09/24 09:58:46;;;;;;;12.30;4.40;;;19.80;94.30;;;;;;5089348;28;20024;-66
2021/09/24 10:01:18;;;;;;;9.00;4.35;;;19.80;94.00;;;;;;5090743;28;20076;-66
2021/09/24 10:03:53;;;;;;;6.70;4.65;;;19.80;93.80;;;;;;5090261;28;20020;-66
2021/09/24 10:06:22;;;;;;;26.42;5.03;;;19.90;93.70;;;;;;5090824;28;20071;-66
2021/09/24 10:08:56;;;;;;;9.50;4.38;;;19.80;93.60;;;;;;5089413;28;20032;-66
2021/09/24 10:11:37;;;;;;;8.02;3.42;;;19.70;93.20;;;;;;5090012;28;20482;-66
2021/09/24 10:14:04;;;;;;;4.63;3.90;;;19.60;93.40;;;;;;5089568;28;20032;-66
2021/09/24 10:16:35;;;;;;;8.00;3.75;;;19.60;93.70;;;;;;5070929;28;20058;-66
2021/09/24 10:19:01;;;;;;;6.90;3.20;;;19.70;93.70;;;;;;5091148;28;20028;-66
2021/09/24 10:21:27;;;;;;;6.20;3.60;;;20.00;93.60;;;;;;5091259;28;20028;-66
2021/09/24 10:23:54;;;;;;;5.57;3.58;;;20.10;92.70;;;;;;5091051;28;20105;-66
2021/09/24 10:26:34;;;;;;;4.40;3.30;;;20.10;92.50;;;;;;5092573;28;20032;-66
2021/09/24 10:29:22;;;;;;;5.80;3.28;;;20.20;92.30;;;;;;5088448;28;20078;-66
2021/09/24 10:31:50;;;;;;;6.10;3.65;;;20.40;92.00;;;;;;5090733;28;20611;-66
2021/09/24 10:34:18;;;;;;;5.70;3.30;;;20.60;91.80;;;;;;5074676;28;20388;-66
2021/09/24 10:36:56;;;;;;;4.45;3.42;;;20.90;91.00;;;;;;5087478;28;20031;-66
2021/09/24 10:39:30;;;;;;;5.20;3.35;;;21.20;90.70;;;;;;5092247;28;20028;-66
2021/09/24 10:42:19;;;;;;;3.70;2.90;;;21.40;89.20;;;;;;5094318;28;20055;-66
2021/09/24 10:45:08;;;;;;;10.02;3.58;;;21.70;87.60;;;;;;5092785;28;20138;-66
2021/09/24 10:47:49;;;;;;;4.97;3.17;;;21.80;86.00;;;;;;5093619;28;20031;-65
2021/09/24 10:50:38;;;;;;;5.80;3.45;;;21.90;84.80;;;;;;5093978;28;20028;-66
2021/09/24 10:54:09;;;;;;;4.77;3.43;;;22.00;84.20;;;;;;5094570;28;20119;-66
2021/09/24 10:56:04;;;;;;;3.70;3.30;;;22.00;84.10;;;;;;5076169;28;20039;-67
2021/09/24 10:58:30;;;;;;;3.63;2.90;;;22.10;84.10;;;;;;5093729;28;20081;-66
2021/09/24 11:00:56;;;;;;;4.45;2.63;;;22.20;83.60;;;;;;5093880;28;20544;-66
2021/09/24 11:03:25;;;;;;;3.70;2.75;;;22.30;81.90;;;;;;5093451;28;20020;-65
2021/09/24 11:05:58;;;;;;;6.80;2.70;;;22.40;80.50;;;;;;5093475;28;20024;-65
2021/09/24 11:08:32;;;;;;;2.67;2.40;;;22.60;80.10;;;;;;5093444;28;20536;-66
2021/09/24 11:11:23;;;;;;;4.18;2.40;;;22.50;79.00;;;;;;5093636;28;20508;-66
2021/09/24 11:13:51;;;;;;;5.93;2.80;;;22.40;78.80;;;;;;5093123;28;20106;-66
2021/09/24 11:16:47;;;;;;;7.05;2.50;;;22.40;78.70;;;;;;5093543;28;20146;-66
2021/09/24 11:19:30;;;;;;;7.68;3.00;;;22.30;79.10;;;;;;5094339;28;20026;-66
2021/09/24 11:21:58;;;;;;;3.88;2.45;;;22.20;79.00;;;;;;5073777;28;20154;-66
2021/09/24 11:24:29;;;;;;;8.45;2.90;;;22.30;79.10;;;;;;5094328;28;20114;-66
2021/09/24 11:26:58;;;;;;;10.35;2.90;;;22.50;77.70;;;;;;5089036;28;20032;-65
2021/09/24 11:29:27;;;;;;;3.20;2.25;;;22.70;76.70;;;;;;5094020;28;20035;-66
2021/09/24 11:31:53;;;;;;;10.43;2.70;;;23.00;76.10;;;;;;5092750;28;20032;-66
2021/09/24 11:34:42;;;;;;;3.72;2.50;;;23.30;74.80;;;;;;5093582;28;20024;-66
2021/09/24 11:37:08;;;;;;;3.05;2.63;;;23.60;72.80;;;;;;5092347;28;20059;-65
2021/09/24 11:39:35;;;;;;;5.10;2.63;;;23.40;72.20;;;;;;5091374;28;20082;-65
2021/09/24 11:42:06;;;;;;;4.53;2.55;;;23.20;72.80;;;;;;5092798;28;20063;-66
2021/09/24 11:44:33;;;;;;;2.85;2.17;;;23.20;72.40;;;;;;5091798;28;20036;-66
2021/09/24 11:46:58;;;;;;;2.67;2.05;;;23.30;72.50;;;;;;5092476;28;20118;-66
2021/09/24 11:49:24;;;;;;;5.88;2.70;;;23.40;71.60;;;;;;5092618;28;20151;-66
2021/09/24 11:51:59;;;;;;;5.07;2.60;;;23.50;70.90;;;;;;5086127;28;20131;-66
2021/09/24 11:54:26;;;;;;;2.30;2.08;;;23.70;69.00;;;;;;5092739;28;20036;-66
2021/09/24 11:56:52;;;;;;;4.45;2.53;;;23.90;96.20;;;;;;5091729;28;20167;-66
2021/09/24 11:59:18;;;;;;;4.07;2.55;;;24.20;68.10;;;;;;5092418;28;20024;-66
2021/09/24 12:01:45;;;;;;;4.85;2.65;;;24.50;67.80;;;;;;5091969;28;20020;-66
2021/09/24 12:04:13;;;;;;;2.85;2.55;;;24.60;66.60;;;;;;5092713;28;20103;-65
2021/09/24 12:06:40;;;;;;;2.42;2.22;;;24.80;66.70;;;;;;5074016;28;20032;-65
2021/09/24 12:09:12;;;;;;;3.55;2.80;;;24.90;65.70;;;;;;5092500;28;20063;-66
2021/09/24 12:11:47;;;;;;;3.70;3.15;;;25.10;64.70;;;;;;5092059;28;20032;-66
2021/09/24 12:14:14;;;;;;;2.65;2.25;;;25.30;67.50;;;;;;5093004;28;20473;-66
2021/09/24 12:16:41;;;;;;;9.45;2.53;;;25.30;63.60;;;;;;5091544;28;20541;-65
2021/09/24 12:19:16;;;;;;;3.83;3.35;;;25.40;63.10;;;;;;5092105;28;20032;-66
2021/09/24 12:21:43;;;;;;;3.35;2.20;;;25.60;61.60;;;;;;5082194;28;20053;-66
2021/09/24 12:24:09;;;;;;;2.90;2.40;;;;;;;;;;5092412;28;20115;-66
2021/09/24 12:26:39;;;;;;;2.67;2.33;;;26.00;59.60;;;;;;5091552;28;20024;-65
2021/09/24 12:29:15;;;;;;;2.97;2.78;;;26.10;59.80;;;;;;5092309;28;20036;-65
2021/09/24 12:31:44;;;;;;;3.80;2.92;;;26.30;59.50;;;;;;5089843;28;20488;-66
2021/09/24 12:34:13;;;;;;;3.50;2.72;;;26.40;59.30;;;;;;5091180;28;20027;-66
2021/09/24 12:36:53;;;;;;;3.03;2.70;;;;;;;;;;5091307;28;20094;-66
2021/09/24 12:39:21;;;;;;;5.32;3.00;;;27.10;57.60;;;;;;5091559;28;20024;-66
2021/09/24 12:41:48;;;;;;;6.13;2.60;;;27.20;57.80;;;;;;5072918;28;20056;-66
2021/09/24 12:44:14;;;;;;;5.07;2.65;;;27.30;57.80;;;;;;5091702;28;20035;-66
2021/09/24 12:46:50;;;;;;;7.75;2.78;;;27.50;57.30;;;;;;5091625;28;20036;-66
2021/09/24 12:49:17;;;;;;;5.35;3.08;;;27.70;55.80;;;;;;5091463;28;20032;-66